CheckWX is a tool to help pilots better visualize weather data.  It is not intended as a substitute for an official pre-flight weather briefing.

06:07:24 UTC

CYYQ METAR
Churchill Airport
Churchill, Canada
Current

1 hour ago

CYYQ 230500Z 16013KT 15SM BKN075 M03/M05 A3015 RMK AC6 SLP213
Observed
Apr-23 @ 05:00 UTC
Wind
  • 160° at 13 KTS
Visibility
15 SM
Flight Rules
VFR
Cloud Levels
  • Broken at 7,500' AGL
Temperature
-3°C / 27°F
Dewpoint
-5°C / 23°F
Humidity
86%
Altimeter
30.15" Hg
Pressure
1021.02 hPa
Previous

2 hours ago

CYYQ 230400Z 15011KT 15SM FEW085 M03/M05 A3017 RMK AC1 SLP221
Observed
Apr-23 @ 04:00 UTC
Wind
  • 150° at 11 KTS
Visibility
15 SM
Flight Rules
VFR
Cloud Levels
  • Few at 8,500' AGL
Temperature
-3°C / 27°F
Dewpoint
-5°C / 23°F
Humidity
86%
Altimeter
30.17" Hg
Pressure
1021.72 hPa
Previous

3 hours ago

CYYQ 230300Z 15011KT 15SM FEW090 SCT250 M02/M05 A3018 RMK AC2CI1 SLP225
Observed
Apr-23 @ 03:00 UTC
Wind
  • 150° at 11 KTS
Visibility
15 SM
Flight Rules
VFR
Cloud Levels
  • Few at 9,000' AGL
  • Scattered at 25,000' AGL
Temperature
-2°C / 28°F
Dewpoint
-5°C / 23°F
Humidity
80%
Altimeter
30.18" Hg
Pressure
1022.02 hPa